createdAt,value
2024-05-09T00:01:25.164Z,7.95
2024-05-09T00:03:55.116Z,7.83
2024-05-09T00:06:25.034Z,7.70
2024-05-09T00:08:57.588Z,7.64
2024-05-09T00:11:27.795Z,7.75
2024-05-09T00:13:57.643Z,7.75
2024-05-09T00:16:27.587Z,7.80
2024-05-09T00:18:57.550Z,7.88
2024-05-09T00:21:27.438Z,7.43
2024-05-09T00:23:59.973Z,7.58
2024-05-09T00:26:29.990Z,7.30
2024-05-09T00:28:59.950Z,6.98
2024-05-09T00:31:29.838Z,7.45
2024-05-09T00:33:59.715Z,7.74
2024-05-09T00:36:29.615Z,7.62
2024-05-09T00:39:02.074Z,7.56
2024-05-09T00:41:31.939Z,7.61
2024-05-09T00:44:02.402Z,7.61
2024-05-09T00:46:32.322Z,7.25
2024-05-09T00:49:02.282Z,7.29
2024-05-09T00:51:32.253Z,7.47
2024-05-09T00:54:05.637Z,7.25
2024-05-09T00:56:35.549Z,7.27
2024-05-09T00:59:05.646Z,7.28
2024-05-09T01:01:35.543Z,7.24
2024-05-09T01:04:05.620Z,7.16
2024-05-09T01:06:35.459Z,6.89
2024-05-09T01:09:07.988Z,6.64
2024-05-09T01:11:39.487Z,6.56
2024-05-09T01:14:09.517Z,6.31
2024-05-09T01:16:39.477Z,6.39
2024-05-09T01:19:09.454Z,6.71
2024-05-09T01:21:43.066Z,6.67
2024-05-09T01:24:15.728Z,6.68
2024-05-09T01:26:45.614Z,6.78
2024-05-09T01:29:15.442Z,7.32
2024-05-09T01:31:45.369Z,7.26
2024-05-09T01:34:15.238Z,6.98
2024-05-09T01:36:45.120Z,7.03
2024-05-09T01:39:17.628Z,7.05
2024-05-09T01:41:47.508Z,7.14
2024-05-09T01:44:17.368Z,7.22
2024-05-09T01:46:47.280Z,6.97
2024-05-09T01:49:17.355Z,7.13
2024-05-09T01:51:47.411Z,7.24
2024-05-09T01:54:20.076Z,7.18
2024-05-09T01:56:49.902Z,7.05
2024-05-09T01:59:19.860Z,7.04
2024-05-09T02:01:56.714Z,6.94
2024-05-09T02:04:28.118Z,6.71
2024-05-09T02:06:58.105Z,6.94
2024-05-09T02:09:30.666Z,6.95
2024-05-09T02:12:00.806Z,6.89
2024-05-09T02:14:31.180Z,6.88
2024-05-09T02:17:01.139Z,6.96
2024-05-09T02:19:31.272Z,6.78
2024-05-09T02:22:01.201Z,6.60
2024-05-09T02:24:33.704Z,6.58
2024-05-09T02:27:03.497Z,6.51
2024-05-09T02:29:33.585Z,6.70
2024-05-09T02:32:03.563Z,6.87
2024-05-09T02:34:33.585Z,6.79
2024-05-09T02:37:00.799Z,6.83
2024-05-09T02:39:33.342Z,6.52
2024-05-09T02:42:00.505Z,6.77
2024-05-09T02:44:30.458Z,6.69
2024-05-09T02:46:57.654Z,6.56
2024-05-09T02:49:27.605Z,6.57
2024-05-09T02:51:54.861Z,6.68
2024-05-09T02:54:24.689Z,6.58
2024-05-09T02:56:54.542Z,6.33
2024-05-09T02:59:24.606Z,6.22
2024-05-09T03:01:51.940Z,6.03
2024-05-09T03:04:21.936Z,6.17
2024-05-09T03:06:50.189Z,6.34
2024-05-09T03:09:21.654Z,6.32
2024-05-09T03:11:49.007Z,6.12
2024-05-09T03:14:21.967Z,6.17
2024-05-09T03:16:49.232Z,6.27
2024-05-09T03:19:19.128Z,5.93
2024-05-09T03:21:46.334Z,6.03
2024-05-09T03:24:16.130Z,6.00
2024-05-09T03:26:43.277Z,6.17
2024-05-09T03:29:13.242Z,6.22
2024-05-09T03:31:43.225Z,6.24
2024-05-09T03:34:13.235Z,5.99
2024-05-09T03:36:42.172Z,5.98
2024-05-09T03:39:12.422Z,6.15
2024-05-09T03:41:42.326Z,6.14
2024-05-09T03:44:12.320Z,5.97
2024-05-09T03:46:39.602Z,6.09
2024-05-09T03:49:30.582Z,6.12
2024-05-09T03:52:05.126Z,6.38
2024-05-09T03:54:32.382Z,6.08
2024-05-09T03:57:02.299Z,6.09
2024-05-09T03:59:29.485Z,6.23
2024-05-09T04:01:59.435Z,5.98
2024-05-09T04:04:29.438Z,6.43
2024-05-09T04:06:59.277Z,6.17
2024-05-09T04:09:26.633Z,6.05
2024-05-09T04:11:56.561Z,5.49
2024-05-09T04:14:24.782Z,5.26
2024-05-09T04:16:54.598Z,5.61
2024-05-09T04:19:22.023Z,5.70
2024-05-09T04:21:54.549Z,5.86
2024-05-09T04:24:21.725Z,5.33
2024-05-09T04:26:51.558Z,5.66
2024-05-09T04:29:18.779Z,5.92
2024-05-09T04:31:48.696Z,6.16
2024-05-09T04:34:16.181Z,5.87
2024-05-09T04:36:46.139Z,5.96
2024-05-09T04:39:16.038Z,5.88
2024-05-09T04:41:45.864Z,5.77
2024-05-09T04:44:13.185Z,5.68
2024-05-09T04:46:43.089Z,5.92
2024-05-09T04:49:10.476Z,6.18
2024-05-09T04:51:40.441Z,6.26
2024-05-09T04:54:10.628Z,6.11
2024-05-09T04:56:43.462Z,5.99
2024-05-09T04:59:10.659Z,6.24
2024-05-09T05:01:40.500Z,6.27
2024-05-09T05:04:07.897Z,6.71
2024-05-09T05:06:37.928Z,6.98
2024-05-09T05:09:05.291Z,7.10
2024-05-09T05:11:35.246Z,6.66
2024-05-09T05:14:05.327Z,6.54
2024-05-09T05:16:35.870Z,6.72
2024-05-09T05:19:03.150Z,6.47
2024-05-09T05:21:33.686Z,6.49
2024-05-09T05:24:00.981Z,6.52
2024-05-09T05:26:30.988Z,6.72
2024-05-09T05:28:58.341Z,6.71
2024-05-09T05:31:30.854Z,6.66
2024-05-09T05:33:58.035Z,6.83
2024-05-09T05:36:27.885Z,6.83
2024-05-09T05:38:55.110Z,6.79
2024-05-09T05:41:24.901Z,7.22
2024-05-09T05:43:52.244Z,7.27
2024-05-09T05:46:22.180Z,7.40
2024-05-09T05:48:52.232Z,7.68
2024-05-09T05:51:22.253Z,7.89
2024-05-09T05:53:49.579Z,7.92
2024-05-09T05:56:19.381Z,8.08
2024-05-09T05:58:46.683Z,8.07
2024-05-09T06:01:16.607Z,8.06
2024-05-09T06:03:44.035Z,8.20
2024-05-09T06:06:16.780Z,8.29
2024-05-09T06:08:44.174Z,8.16
2024-05-09T06:11:14.202Z,8.26
2024-05-09T06:13:42.879Z,8.75
2024-05-09T06:16:12.840Z,9.10
2024-05-09T06:18:40.245Z,8.91
2024-05-09T06:21:10.416Z,9.12
2024-05-09T06:23:45.447Z,8.91
2024-05-09T06:26:15.302Z,9.12
2024-05-09T06:28:42.661Z,9.12
2024-05-09T06:31:12.511Z,9.14
2024-05-09T06:33:41.376Z,9.11
2024-05-09T06:36:11.371Z,9.24
2024-05-09T06:38:41.413Z,9.46
2024-05-09T06:41:11.689Z,9.85
2024-05-09T06:43:39.137Z,9.93
2024-05-09T06:46:08.909Z,9.74
2024-05-09T06:48:36.150Z,10.20
2024-05-09T06:51:06.319Z,10.33
2024-05-09T06:53:33.623Z,10.35
2024-05-09T06:56:06.285Z,10.19
2024-05-09T06:58:33.551Z,10.29
2024-05-09T07:01:03.908Z,10.34
2024-05-09T07:03:31.941Z,9.80
2024-05-09T07:06:02.054Z,9.89
2024-05-09T07:08:29.441Z,10.17
2024-05-09T07:10:59.397Z,10.12
2024-05-09T07:13:29.489Z,10.41
2024-05-09T07:15:59.297Z,10.71
2024-05-09T07:18:26.595Z,10.76
2024-05-09T07:20:56.643Z,10.95
2024-05-09T07:23:23.938Z,10.93
2024-05-09T07:25:54.222Z,10.61
2024-05-09T07:28:21.656Z,10.75
2024-05-09T07:30:54.133Z,11.28
2024-05-09T07:33:23.184Z,11.57
2024-05-09T07:35:54.270Z,11.72
2024-05-09T07:38:21.825Z,11.40
2024-05-09T07:40:51.878Z,11.58
2024-05-09T07:43:19.102Z,11.55
2024-05-09T07:45:53.520Z,11.74
2024-05-09T07:53:39.906Z,11.86
2024-05-09T07:56:14.624Z,11.91
2024-05-09T07:58:43.237Z,12.09
2024-05-09T08:01:13.244Z,12.21
2024-05-09T08:03:43.564Z,12.38
2024-05-09T08:06:13.719Z,12.34
2024-05-09T08:08:40.909Z,12.38
2024-05-09T08:11:11.001Z,12.52
2024-05-09T08:13:38.460Z,12.95
2024-05-09T08:16:09.504Z,12.66
2024-05-09T08:18:36.978Z,13.00
2024-05-09T08:21:09.648Z,13.54
2024-05-09T08:23:36.915Z,13.48
2024-05-09T08:26:07.065Z,13.32
2024-05-09T08:28:34.456Z,13.81
2024-05-09T08:31:06.932Z,13.92
2024-05-09T08:33:35.064Z,13.97
2024-05-09T08:36:05.226Z,14.05
2024-05-09T08:38:35.185Z,13.87
2024-05-09T08:41:05.971Z,14.22
2024-05-09T08:43:33.244Z,14.21
2024-05-09T08:46:03.238Z,14.17
2024-05-09T08:48:30.600Z,14.27
2024-05-09T08:51:01.828Z,13.93
2024-05-09T08:53:29.368Z,14.10
2024-05-09T08:56:02.149Z,14.23
2024-05-09T08:58:30.060Z,14.27
2024-05-09T09:01:00.515Z,14.01
2024-05-09T09:03:28.224Z,13.94
2024-05-09T09:06:01.748Z,14.11
2024-05-09T09:08:28.999Z,14.17
2024-05-09T09:11:01.614Z,14.35
2024-05-09T09:13:28.875Z,14.12
2024-05-09T09:16:00.292Z,13.98
2024-05-09T09:18:28.011Z,14.21
2024-05-09T09:20:58.395Z,14.03
2024-05-09T09:23:27.458Z,14.36
2024-05-09T09:26:04.096Z,14.86
2024-05-09T09:28:31.286Z,14.70
2024-05-09T09:31:04.650Z,14.62
2024-05-09T09:33:32.789Z,14.68
2024-05-09T09:36:06.313Z,14.74
2024-05-09T09:38:36.855Z,14.92
2024-05-09T09:41:10.950Z,15.28
2024-05-09T09:43:38.296Z,15.12
2024-05-09T09:46:11.767Z,15.04
2024-05-09T09:48:40.620Z,14.87
2024-05-09T09:51:10.802Z,14.81
2024-05-09T09:53:38.583Z,14.82
2024-05-09T09:56:11.689Z,14.92
2024-05-09T09:58:39.317Z,14.90
2024-05-09T10:01:09.278Z,14.91
2024-05-09T10:03:36.899Z,14.89
2024-05-09T10:06:07.368Z,15.34
2024-05-09T10:08:34.936Z,15.60
2024-05-09T10:11:06.481Z,15.38
2024-05-09T10:13:39.250Z,15.65
2024-05-09T10:16:13.438Z,15.12
2024-05-09T10:18:41.690Z,15.14
2024-05-09T10:21:20.981Z,15.19
2024-05-09T10:23:57.733Z,15.55
2024-05-09T10:26:33.302Z,15.63
2024-05-09T10:29:13.103Z,16.05
2024-05-09T10:31:44.520Z,16.18
2024-05-09T10:34:17.568Z,16.46
2024-05-09T10:36:47.650Z,16.08
2024-05-09T10:39:15.022Z,16.45
2024-05-09T10:41:44.920Z,16.52
2024-05-09T10:44:15.569Z,16.37
2024-05-09T10:46:45.591Z,16.23
2024-05-09T10:49:13.118Z,16.17
2024-05-09T10:51:42.916Z,16.08
2024-05-09T10:54:10.654Z,15.66
2024-05-09T10:56:41.226Z,15.95
2024-05-09T10:59:30.189Z,15.55
2024-05-09T11:02:03.056Z,15.48
2024-05-09T11:04:30.197Z,15.68
2024-05-09T11:07:01.571Z,15.67
2024-05-09T11:09:31.096Z,15.97
2024-05-09T11:12:00.938Z,16.15
2024-05-09T11:14:27.987Z,16.24
2024-05-09T11:17:09.225Z,16.59
2024-05-09T11:19:38.657Z,16.82
2024-05-09T11:22:08.667Z,16.78
2024-05-09T11:24:36.035Z,16.89
2024-05-09T11:27:07.204Z,16.63
2024-05-09T11:29:38.295Z,16.48
2024-05-09T11:32:11.782Z,16.22
2024-05-09T11:34:39.030Z,16.09
2024-05-09T11:37:08.676Z,16.18
2024-05-09T11:39:35.732Z,16.20
2024-05-09T11:42:05.498Z,16.47
2024-05-09T11:44:32.572Z,16.78
2024-05-09T11:47:02.159Z,16.74
2024-05-09T11:49:31.958Z,16.95
2024-05-09T11:52:03.907Z,16.62
2024-05-09T11:54:31.615Z,16.95
2024-05-09T11:57:01.308Z,16.68
2024-05-09T11:59:28.275Z,16.96
2024-05-09T12:01:57.974Z,17.15
2024-05-09T12:04:25.451Z,16.96
2024-05-09T12:06:57.894Z,16.91
2024-05-09T12:09:25.565Z,17.33
2024-05-09T12:11:55.228Z,17.51
2024-05-09T12:14:22.670Z,17.67
2024-05-09T12:16:52.533Z,17.08
2024-05-09T12:19:19.487Z,17.14
2024-05-09T12:21:49.502Z,17.44
2024-05-09T12:24:19.128Z,17.22
2024-05-09T12:26:49.471Z,17.66
2024-05-09T12:36:59.956Z,17.85
2024-05-09T12:39:29.728Z,17.84
2024-05-09T12:41:59.416Z,17.29
2024-05-09T12:44:26.423Z,17.48
2024-05-09T12:46:56.119Z,17.57
2024-05-09T12:49:24.597Z,16.87
2024-05-09T12:51:54.419Z,17.16
2024-05-09T12:54:21.619Z,17.28
2024-05-09T12:56:54.298Z,17.93
2024-05-09T12:59:21.282Z,17.52
2024-05-09T13:01:51.081Z,17.30
2024-05-09T13:04:18.344Z,17.52
2024-05-09T13:06:48.195Z,17.55
2024-05-09T13:09:15.280Z,17.73
2024-05-09T13:11:45.017Z,17.70
2024-05-09T13:14:14.783Z,17.62
2024-05-09T13:16:44.811Z,17.71
2024-05-09T13:19:30.238Z,17.86
2024-05-09T13:21:59.813Z,17.91
2024-05-09T13:28:24.003Z,18.04
2024-05-09T13:30:53.646Z,17.59
2024-05-09T13:33:23.496Z,17.67
2024-05-09T13:35:51.187Z,17.94
2024-05-09T13:38:21.410Z,18.17
2024-05-09T13:40:49.342Z,17.87
2024-05-09T13:43:21.067Z,17.42
2024-05-09T13:45:48.114Z,17.93
2024-05-09T13:48:20.558Z,17.70
2024-05-09T13:50:47.584Z,17.69
2024-05-09T13:53:17.624Z,17.80
2024-05-09T13:55:44.933Z,17.80
2024-05-09T14:02:10.433Z,17.74
2024-05-09T14:04:41.267Z,17.76
2024-05-09T14:07:11.799Z,17.60
2024-05-09T14:09:38.887Z,17.68
2024-05-09T14:12:11.380Z,17.78
2024-05-09T14:14:38.875Z,17.65
2024-05-09T14:17:08.631Z,17.68
2024-05-09T14:19:35.953Z,17.84
2024-05-09T14:22:08.689Z,17.89
2024-05-09T14:24:36.331Z,17.70
2024-05-09T14:27:06.173Z,17.84
2024-05-09T14:29:33.754Z,17.90
2024-05-09T14:32:03.300Z,17.83
2024-05-09T14:34:30.449Z,17.99
2024-05-09T14:37:00.489Z,18.01
2024-05-09T14:39:30.287Z,18.04
2024-05-09T14:41:59.941Z,17.74
2024-05-09T14:44:27.303Z,17.35
2024-05-09T14:46:57.333Z,17.63
2024-05-09T14:49:24.454Z,17.60
2024-05-09T14:51:54.307Z,17.49
2024-05-09T14:54:21.252Z,17.58
2024-05-09T14:56:54.925Z,17.67
2024-05-09T14:59:21.909Z,17.69
2024-05-09T15:01:51.645Z,17.71
2024-05-09T15:08:15.826Z,18.07
2024-05-09T15:10:44.413Z,17.71
2024-05-09T15:13:17.491Z,17.67
2024-05-09T15:15:45.622Z,17.99
2024-05-09T15:18:15.898Z,17.95
2024-05-09T15:20:43.898Z,17.71
2024-05-09T15:23:13.892Z,17.92
2024-05-09T15:25:41.383Z,17.75
2024-05-09T15:28:10.955Z,17.69
2024-05-09T15:30:45.415Z,17.60
2024-05-09T15:33:16.740Z,17.79
2024-05-09T15:35:45.940Z,17.76
2024-05-09T15:38:18.471Z,17.67
2024-05-09T15:40:46.232Z,17.69
2024-05-09T15:43:16.739Z,17.75
2024-05-09T15:45:46.571Z,17.81
2024-05-09T15:48:16.744Z,17.52
2024-05-09T15:50:44.416Z,17.85
2024-05-09T15:53:14.338Z,17.74
2024-05-09T15:55:42.033Z,17.75
2024-05-09T15:58:12.391Z,17.79
2024-05-09T16:00:42.392Z,17.68
2024-05-09T16:03:17.661Z,17.61
2024-05-09T16:05:45.551Z,17.36
2024-05-09T16:08:16.752Z,17.19
2024-05-09T16:10:46.560Z,17.50
2024-05-09T16:13:17.933Z,17.45
2024-05-09T16:15:45.239Z,17.53
2024-05-09T16:18:17.831Z,17.62
2024-05-09T16:20:47.487Z,17.58
2024-05-09T16:23:19.175Z,17.24
2024-05-09T16:25:48.396Z,17.31
2024-05-09T16:28:18.693Z,17.31
2024-05-09T16:30:45.900Z,17.27
2024-05-09T16:33:19.619Z,17.21
2024-05-09T16:35:46.999Z,16.93
2024-05-09T16:38:17.066Z,16.87
2024-05-09T16:40:43.968Z,16.79
2024-05-09T16:43:13.993Z,16.94
2024-05-09T16:45:41.511Z,17.08
2024-05-09T16:48:11.891Z,17.00
2024-05-09T16:54:38.102Z,17.06
2024-05-09T16:57:05.497Z,17.09
2024-05-09T16:59:35.304Z,17.03
2024-05-09T17:02:02.775Z,16.93
2024-05-09T17:04:33.048Z,16.93
2024-05-09T17:07:01.183Z,16.84
2024-05-09T17:09:30.883Z,16.77
2024-05-09T17:12:00.920Z,16.90
2024-05-09T17:14:30.728Z,16.62
2024-05-09T17:17:00.631Z,16.45
2024-05-09T17:19:30.797Z,16.45
2024-05-09T17:21:57.952Z,16.71
2024-05-09T17:24:27.903Z,16.64
2024-05-09T17:26:54.968Z,16.53
2024-05-09T17:29:28.531Z,16.44
2024-05-09T17:31:58.262Z,16.54
2024-05-09T17:34:25.459Z,16.48
2024-05-09T17:36:55.343Z,16.46
2024-05-09T17:39:22.436Z,16.42
2024-05-09T17:41:52.385Z,16.32
2024-05-09T17:44:19.810Z,16.17
2024-05-09T17:46:52.855Z,16.02
2024-05-09T17:49:20.063Z,15.93
2024-05-09T17:51:53.746Z,15.36
2024-05-09T17:54:21.148Z,14.98
2024-05-09T17:56:51.028Z,14.75
2024-05-09T17:59:18.170Z,14.59
2024-05-09T18:01:48.013Z,14.45
2024-05-09T18:04:18.311Z,14.40
2024-05-09T18:06:48.105Z,14.57
2024-05-09T18:09:15.149Z,14.65
2024-05-09T18:11:45.076Z,14.89
2024-05-09T18:14:12.344Z,15.01
2024-05-09T18:16:42.262Z,14.85
2024-05-09T18:19:09.938Z,14.61
2024-05-09T18:21:42.392Z,14.12
2024-05-09T18:24:10.607Z,14.34
2024-05-09T18:26:40.464Z,14.37
2024-05-09T18:29:07.654Z,14.43
2024-05-09T18:31:38.538Z,14.22
2024-05-09T18:34:05.905Z,14.31
2024-05-09T18:36:35.707Z,14.25
2024-05-09T18:39:06.317Z,14.19
2024-05-09T18:41:36.199Z,14.19
2024-05-09T18:44:03.841Z,14.13
2024-05-09T18:46:33.604Z,13.98
2024-05-09T18:49:00.890Z,13.50
2024-05-09T18:51:30.937Z,13.48
2024-05-09T18:54:00.622Z,13.47
2024-05-09T18:56:30.471Z,13.43
2024-05-09T18:59:00.217Z,12.97
2024-05-09T19:01:27.235Z,13.17
2024-05-09T19:03:57.902Z,13.28
2024-05-09T19:06:25.131Z,13.33
2024-05-09T19:08:54.831Z,13.19
2024-05-09T19:11:21.958Z,13.07
2024-05-09T19:13:54.646Z,13.14
2024-05-09T19:16:21.955Z,13.02
2024-05-09T19:18:54.072Z,12.85
2024-05-09T19:21:21.344Z,12.74
2024-05-09T19:23:52.463Z,12.67
2024-05-09T19:26:19.633Z,12.78
2024-05-09T19:28:49.434Z,12.22
2024-05-09T19:31:19.433Z,12.03
2024-05-09T19:33:49.416Z,12.06
2024-05-09T19:36:19.516Z,12.23
2024-05-09T19:38:51.681Z,12.31
2024-05-09T19:41:18.645Z,12.15
2024-05-09T19:43:48.421Z,11.53
2024-05-09T19:46:15.627Z,11.87
2024-05-09T19:48:48.449Z,11.86
2024-05-09T19:51:15.819Z,11.86
2024-05-09T19:53:45.391Z,11.69
2024-05-09T19:56:12.371Z,11.27
2024-05-09T19:58:42.407Z,11.10
2024-05-09T20:01:09.500Z,10.59
2024-05-09T20:03:39.446Z,10.60
2024-05-09T20:06:09.278Z,11.02
2024-05-09T20:08:39.172Z,11.57
2024-05-09T20:11:06.347Z,11.60
2024-05-09T20:13:36.114Z,11.50
2024-05-09T20:16:03.376Z,11.40
2024-05-09T20:18:33.340Z,11.53
2024-05-09T20:21:00.835Z,11.44
2024-05-09T20:23:33.523Z,11.42
2024-05-09T20:26:00.525Z,10.90
2024-05-09T20:28:30.324Z,10.78
2024-05-09T20:30:57.783Z,10.97
2024-05-09T20:33:27.575Z,10.40
2024-05-09T20:35:55.770Z,10.69
2024-05-09T20:38:25.562Z,10.91
2024-05-09T20:40:55.453Z,10.71
2024-05-09T20:43:25.750Z,10.55
2024-05-09T20:45:53.049Z,10.20
2024-05-09T20:48:24.177Z,10.53
2024-05-09T20:50:51.396Z,10.24
2024-05-09T20:53:21.467Z,9.92
2024-05-09T20:55:49.282Z,9.47
2024-05-09T20:58:21.765Z,10.11
2024-05-09T21:00:49.264Z,10.37
2024-05-09T21:03:19.115Z,9.96
2024-05-09T21:05:46.963Z,9.07
2024-05-09T21:08:17.075Z,9.27
2024-05-09T21:10:44.167Z,9.31
2024-05-09T21:13:13.909Z,9.68
2024-05-09T21:15:43.994Z,9.68
2024-05-09T21:18:13.872Z,9.64
2024-05-09T21:20:41.808Z,9.78
2024-05-09T21:23:11.406Z,10.10
2024-05-09T21:25:38.374Z,9.82
2024-05-09T21:28:08.350Z,9.93
2024-05-09T21:30:41.524Z,9.75
2024-05-09T21:33:15.673Z,9.44
2024-05-09T21:35:42.902Z,9.58
2024-05-09T21:38:13.645Z,9.90
2024-05-09T21:40:40.867Z,10.06
2024-05-09T21:43:10.658Z,10.15
2024-05-09T21:45:38.018Z,10.04
2024-05-09T21:48:08.294Z,10.04
2024-05-09T21:50:41.137Z,10.05
2024-05-09T21:53:12.972Z,10.24
2024-05-09T21:55:40.508Z,10.52
2024-05-09T21:58:10.687Z,10.22
2024-05-09T22:00:39.635Z,10.35
2024-05-09T22:03:10.782Z,10.56
2024-05-09T22:05:43.967Z,10.53
2024-05-09T22:08:13.781Z,10.63
2024-05-09T22:10:40.955Z,10.68
2024-05-09T22:13:10.818Z,10.66
2024-05-09T22:15:39.196Z,10.76
2024-05-09T22:18:11.259Z,10.77
2024-05-09T22:20:45.470Z,10.90
2024-05-09T22:23:16.239Z,10.89
2024-05-09T22:25:43.239Z,10.70
2024-05-09T22:28:13.011Z,10.65
2024-05-09T22:30:40.605Z,10.58
2024-05-09T22:33:11.784Z,10.59
2024-05-09T22:35:42.020Z,10.68
2024-05-09T22:38:11.680Z,10.58
2024-05-09T22:40:46.769Z,10.60
2024-05-09T22:43:20.790Z,10.36
2024-05-09T22:45:49.410Z,10.61
2024-05-09T22:48:19.389Z,10.53
2024-05-09T22:50:49.144Z,10.36
2024-05-09T22:53:18.922Z,10.27
2024-05-09T22:55:45.895Z,10.12
2024-05-09T22:58:15.729Z,10.29
2024-05-09T23:00:43.207Z,10.24
2024-05-09T23:03:14.238Z,10.09
2024-05-09T23:05:41.245Z,10.31
2024-05-09T23:08:13.637Z,10.38
2024-05-09T23:10:40.795Z,10.15
2024-05-09T23:13:10.563Z,10.23
2024-05-09T23:15:37.942Z,9.82
2024-05-09T23:18:08.358Z,9.86
2024-05-09T23:20:39.247Z,10.07
2024-05-09T23:23:11.137Z,9.98
2024-05-09T23:25:42.052Z,10.04
2024-05-09T23:28:12.233Z,9.87
2024-05-09T23:30:41.121Z,9.92
2024-05-09T23:33:12.875Z,9.75
2024-05-09T23:35:41.086Z,9.72
2024-05-09T23:38:10.836Z,9.86
2024-05-09T23:40:40.442Z,9.80
2024-05-09T23:43:14.341Z,9.73
2024-05-09T23:45:41.925Z,9.89
2024-05-09T23:48:12.081Z,9.74
2024-05-09T23:50:40.416Z,9.90
2024-05-09T23:53:11.224Z,9.64
2024-05-09T23:55:38.806Z,9.75
2024-05-09T23:58:08.776Z,9.70
